Terminal Aerodrome Forecast
Issued by NWS Knoxville/Tri Cities, TN

Home | Current Version | Previous Version | Text Only | Print | Product List | Glossary On
Versions: 1 2 3 4 5 6 7 8 9 10 11 12 13 14
000
FTUS44 KMRX 211127
TAFTRI
TAF
KTRI 211127Z 2112/2212 25006KT P6SM SCT025 BKN040
      TEMPO 2112/2114 2SM BR BKN025
     FM211500 17005KT P6SM OVC035
     FM212100 00000KT P6SM -SHRA OVC025
     FM220200 00000KT 4SM BR BKN015=

USA.gov is the U.S. government's official web portal to all federal, state and local government web resources and services.